createdAt,value
2018-03-01T00:00:14.752Z,16.85
2018-03-01T00:01:14.741Z,16.84
2018-03-01T00:02:14.735Z,16.86
2018-03-01T00:03:14.782Z,16.85
2018-03-01T00:04:14.727Z,16.83
2018-03-01T00:05:14.787Z,16.83
2018-03-01T00:06:14.733Z,16.84
2018-03-01T00:07:14.757Z,16.83
2018-03-01T00:08:14.753Z,16.81
2018-03-01T00:09:14.775Z,16.8
2018-03-01T00:10:14.778Z,16.8
2018-03-01T00:11:14.745Z,16.8
2018-03-01T00:12:14.744Z,16.81
2018-03-01T00:13:14.754Z,16.79
2018-03-01T00:14:14.719Z,16.79
2018-03-01T00:15:14.740Z,16.79
2018-03-01T00:16:14.747Z,16.78
2018-03-01T00:17:14.785Z,16.78
2018-03-01T00:18:14.741Z,16.77
2018-03-01T00:19:14.748Z,16.76
2018-03-01T00:20:14.742Z,16.78
2018-03-01T00:21:14.839Z,16.76
2018-03-01T00:22:14.867Z,16.77
2018-03-01T00:23:14.739Z,16.74
2018-03-01T00:24:14.757Z,16.75
2018-03-01T00:25:14.751Z,16.74
2018-03-01T00:26:14.744Z,16.74
2018-03-01T00:27:14.752Z,16.73
2018-03-01T00:28:14.740Z,16.74
2018-03-01T00:29:14.727Z,16.74
2018-03-01T00:30:14.729Z,16.73
2018-03-01T00:31:14.731Z,16.74
2018-03-01T00:32:15.012Z,16.74
2018-03-01T00:33:14.753Z,16.72
2018-03-01T00:34:14.733Z,16.71
2018-03-01T00:35:14.737Z,16.72
2018-03-01T00:36:14.588Z,16.72
2018-03-01T00:37:14.751Z,16.72
2018-03-01T00:38:14.729Z,16.71
2018-03-01T00:39:14.715Z,16.73
2018-03-01T00:40:14.746Z,16.74
2018-03-01T00:41:14.735Z,16.72
2018-03-01T00:42:20.126Z,16.73
2018-03-01T00:43:14.732Z,16.7
2018-03-01T00:44:14.729Z,16.71
2018-03-01T00:45:14.719Z,16.72
2018-03-01T00:46:14.754Z,16.7
2018-03-01T00:47:14.730Z,16.68
2018-03-01T00:48:14.728Z,16.67
2018-03-01T00:49:14.740Z,16.69
2018-03-01T00:50:14.734Z,16.7
2018-03-01T00:51:14.750Z,16.69
2018-03-01T00:52:14.713Z,16.69
2018-03-01T00:53:14.726Z,16.67
2018-03-01T00:54:14.734Z,16.66
2018-03-01T00:55:14.727Z,16.66
2018-03-01T00:56:14.735Z,16.67
2018-03-01T00:57:14.711Z,16.64
2018-03-01T00:58:14.762Z,16.65
2018-03-01T00:59:14.726Z,16.65
2018-03-01T01:00:14.743Z,16.64
2018-03-01T01:01:14.740Z,16.65
2018-03-01T01:02:14.754Z,16.65
2018-03-01T01:03:14.736Z,16.66
2018-03-01T01:04:14.726Z,16.65
2018-03-01T01:05:14.767Z,16.63
2018-03-01T01:06:14.737Z,16.64
2018-03-01T01:07:14.729Z,16.63
2018-03-01T01:08:14.714Z,16.63
2018-03-01T01:09:14.734Z,16.63
2018-03-01T01:10:14.770Z,16.62
2018-03-01T01:11:14.736Z,16.61
2018-03-01T01:12:14.716Z,16.62
2018-03-01T01:13:14.745Z,16.6
2018-03-01T01:14:14.744Z,16.6
2018-03-01T01:15:14.720Z,16.6
2018-03-01T01:16:14.764Z,16.62
2018-03-01T01:17:14.720Z,16.61
2018-03-01T01:18:14.701Z,16.62
2018-03-01T01:19:14.718Z,16.62
2018-03-01T01:20:14.731Z,16.61
2018-03-01T01:21:14.777Z,16.59
2018-03-01T01:22:14.738Z,16.59
2018-03-01T01:23:14.723Z,16.59
2018-03-01T01:24:14.732Z,16.6
2018-03-01T01:25:14.734Z,16.59
2018-03-01T01:26:14.728Z,16.58
2018-03-01T01:27:14.731Z,16.58
2018-03-01T01:28:14.724Z,16.59
2018-03-01T01:29:14.718Z,16.6
2018-03-01T01:30:14.727Z,16.6
2018-03-01T01:31:14.774Z,16.6
2018-03-01T01:32:14.721Z,16.58
2018-03-01T01:33:14.709Z,16.58
2018-03-01T01:34:14.701Z,16.59
2018-03-01T01:35:14.697Z,16.58
2018-03-01T01:36:14.754Z,16.57
2018-03-01T01:37:14.722Z,16.57
2018-03-01T01:38:14.723Z,16.57
2018-03-01T01:39:14.710Z,16.57
2018-03-01T01:40:14.728Z,16.57
2018-03-01T01:41:14.723Z,16.57
2018-03-01T01:42:14.720Z,16.56
2018-03-01T01:43:14.747Z,16.56
2018-03-01T01:44:14.706Z,16.55
2018-03-01T01:45:14.722Z,16.55
2018-03-01T01:46:14.716Z,16.54
2018-03-01T01:47:14.983Z,16.55
2018-03-01T01:48:14.719Z,16.53
2018-03-01T01:49:14.684Z,16.54
2018-03-01T01:50:14.724Z,16.54
2018-03-01T01:51:14.712Z,16.52
2018-03-01T01:52:14.732Z,16.53
2018-03-01T01:53:14.708Z,16.53
2018-03-01T01:54:14.706Z,16.53
2018-03-01T01:55:14.698Z,16.52
2018-03-01T01:56:14.689Z,16.51
2018-03-01T01:57:14.562Z,16.51
2018-03-01T01:58:14.702Z,16.5
2018-03-01T01:59:14.703Z,16.51
2018-03-01T02:00:14.710Z,16.51
2018-03-01T02:01:14.710Z,16.5
2018-03-01T02:02:14.719Z,16.5
2018-03-01T02:03:14.964Z,16.5
2018-03-01T02:04:14.688Z,16.5
2018-03-01T02:05:14.695Z,16.5
2018-03-01T02:06:14.687Z,16.49
2018-03-01T02:07:14.707Z,16.49
2018-03-01T02:08:14.729Z,16.48
2018-03-01T02:09:14.713Z,16.47
2018-03-01T02:10:14.711Z,16.48
2018-03-01T02:11:14.715Z,16.49
2018-03-01T02:12:14.685Z,16.48
2018-03-01T02:13:14.699Z,16.47
2018-03-01T02:14:14.701Z,16.46
2018-03-01T02:15:14.707Z,16.48
2018-03-01T02:16:14.703Z,16.47
2018-03-01T02:17:14.725Z,16.47
2018-03-01T02:18:14.718Z,16.48
2018-03-01T02:19:14.712Z,16.47
2018-03-01T02:20:14.702Z,16.47
2018-03-01T02:21:14.722Z,16.46
2018-03-01T02:22:14.827Z,16.47
2018-03-01T02:23:14.808Z,16.45
2018-03-01T02:24:14.694Z,16.44
2018-03-01T02:25:14.689Z,16.44
2018-03-01T02:26:14.701Z,16.45
2018-03-01T02:27:14.692Z,16.44
2018-03-01T02:28:14.696Z,16.44
2018-03-01T02:29:14.689Z,16.45
2018-03-01T02:30:14.704Z,16.45
2018-03-01T02:31:14.706Z,16.44
2018-03-01T02:32:14.689Z,16.43
2018-03-01T02:33:14.697Z,16.44
2018-03-01T02:34:14.674Z,16.42
2018-03-01T02:35:14.698Z,16.42
2018-03-01T02:36:14.686Z,16.42
2018-03-01T02:37:14.689Z,16.43
2018-03-01T02:38:14.725Z,16.42
2018-03-01T02:39:14.674Z,16.43
2018-03-01T02:40:14.721Z,16.41
2018-03-01T02:41:14.710Z,16.41
2018-03-01T02:42:14.680Z,16.41
2018-03-01T02:43:14.729Z,16.42
2018-03-01T02:44:14.702Z,16.4
2018-03-01T02:45:14.699Z,16.41
2018-03-01T02:46:14.687Z,16.4
2018-03-01T02:47:14.696Z,16.41
2018-03-01T02:48:14.720Z,16.38
2018-03-01T02:49:14.674Z,16.38
2018-03-01T02:50:14.660Z,16.4
2018-03-01T02:51:14.689Z,16.39
2018-03-01T02:52:14.687Z,16.39
2018-03-01T02:53:14.666Z,16.41
2018-03-01T02:54:14.709Z,16.4
2018-03-01T02:55:14.688Z,16.39
2018-03-01T02:56:14.680Z,16.4
2018-03-01T02:57:14.675Z,16.39
2018-03-01T02:58:14.690Z,16.39
2018-03-01T02:59:14.673Z,16.38
2018-03-01T03:00:14.673Z,16.37
2018-03-01T03:01:14.680Z,16.38
2018-03-01T03:02:14.703Z,16.38
2018-03-01T03:03:14.678Z,16.38
2018-03-01T03:04:14.962Z,16.38
2018-03-01T03:05:14.695Z,16.37
2018-03-01T03:06:14.682Z,16.37
2018-03-01T03:07:14.672Z,16.38
2018-03-01T03:08:14.688Z,16.37
2018-03-01T03:09:14.692Z,16.36
2018-03-01T03:10:14.673Z,16.36
2018-03-01T03:11:14.662Z,16.39
2018-03-01T03:12:14.687Z,16.38
2018-03-01T03:13:14.672Z,16.36
2018-03-01T03:14:14.694Z,16.37
2018-03-01T03:15:14.685Z,16.37
2018-03-01T03:16:14.701Z,16.38
2018-03-01T03:17:14.690Z,16.37
2018-03-01T03:18:14.666Z,16.37
2018-03-01T03:19:14.663Z,16.36
2018-03-01T03:20:14.700Z,16.37
2018-03-01T03:21:14.671Z,16.38
2018-03-01T03:22:14.654Z,16.38
2018-03-01T03:23:14.666Z,16.38
2018-03-01T03:24:14.693Z,16.37
2018-03-01T03:25:14.991Z,16.38
2018-03-01T03:26:14.654Z,16.38
2018-03-01T03:27:14.676Z,16.36
2018-03-01T03:28:14.665Z,16.36
2018-03-01T03:29:14.679Z,16.36
2018-03-01T03:30:14.732Z,16.36
2018-03-01T03:31:14.686Z,16.35
2018-03-01T03:32:14.667Z,16.34
2018-03-01T03:33:14.705Z,16.35
2018-03-01T03:34:14.673Z,16.35
2018-03-01T03:35:14.675Z,16.34
2018-03-01T03:36:14.671Z,16.33
2018-03-01T03:37:14.683Z,16.33
2018-03-01T03:38:14.674Z,16.33
2018-03-01T03:39:14.674Z,16.33
2018-03-01T03:40:14.701Z,16.32
2018-03-01T03:41:14.674Z,16.32
2018-03-01T03:42:14.661Z,16.3
2018-03-01T03:43:14.683Z,16.3
2018-03-01T03:44:14.709Z,16.3
2018-03-01T03:45:14.670Z,16.29
2018-03-01T03:46:14.665Z,16.3
2018-03-01T03:47:14.704Z,16.31
2018-03-01T03:48:14.661Z,16.3
2018-03-01T03:49:14.652Z,16.3
2018-03-01T03:50:14.657Z,16.29
2018-03-01T03:51:14.675Z,16.27
2018-03-01T03:52:14.653Z,16.28
2018-03-01T03:53:14.670Z,16.28
2018-03-01T03:54:14.685Z,16.29
2018-03-01T03:55:14.678Z,16.29
2018-03-01T03:56:14.688Z,16.28
2018-03-01T03:57:14.696Z,16.27
2018-03-01T03:58:14.660Z,16.26
2018-03-01T03:59:14.671Z,16.26
2018-03-01T04:00:14.649Z,16.27
2018-03-01T04:01:14.681Z,16.26
2018-03-01T04:02:14.692Z,16.25
2018-03-01T04:03:14.676Z,16.26
2018-03-01T04:04:14.661Z,16.26
2018-03-01T04:05:14.663Z,16.25
2018-03-01T04:06:14.638Z,16.25
2018-03-01T04:07:14.672Z,16.26
2018-03-01T04:08:14.653Z,16.25
2018-03-01T04:09:14.681Z,16.26
2018-03-01T04:10:14.665Z,16.26
2018-03-01T04:11:14.657Z,16.24
2018-03-01T04:12:14.680Z,16.25
2018-03-01T04:13:14.710Z,16.25
2018-03-01T04:14:14.655Z,16.24
2018-03-01T04:15:14.672Z,16.24
2018-03-01T04:16:14.639Z,16.25
2018-03-01T04:17:14.710Z,16.24
2018-03-01T04:18:14.639Z,16.24
2018-03-01T04:19:14.660Z,16.26
2018-03-01T04:20:14.665Z,16.25
2018-03-01T04:21:14.663Z,16.24
2018-03-01T04:22:14.663Z,16.25
2018-03-01T04:23:14.738Z,16.24
2018-03-01T04:24:14.749Z,16.25
2018-03-01T04:25:14.661Z,16.25
2018-03-01T04:26:14.651Z,16.24
2018-03-01T04:27:14.679Z,16.25
2018-03-01T04:28:14.647Z,16.24
2018-03-01T04:29:14.642Z,16.24
2018-03-01T04:30:14.642Z,16.25
2018-03-01T04:31:14.657Z,16.25
2018-03-01T04:32:14.684Z,16.24
2018-03-01T04:33:14.668Z,16.24
2018-03-01T04:34:14.662Z,16.22
2018-03-01T04:35:14.718Z,16.23
2018-03-01T04:36:14.644Z,16.23
2018-03-01T04:37:14.634Z,16.24
2018-03-01T04:38:14.925Z,16.21
2018-03-01T04:39:14.644Z,16.22
2018-03-01T04:40:14.634Z,16.21
2018-03-01T04:41:14.643Z,16.22
2018-03-01T04:42:14.645Z,16.23
2018-03-01T04:43:14.680Z,16.23
2018-03-01T04:44:14.639Z,16.21
2018-03-01T04:45:14.641Z,16.21
2018-03-01T04:46:14.645Z,16.21
2018-03-01T04:47:14.650Z,16.21
2018-03-01T04:48:14.673Z,16.21
2018-03-01T04:49:14.665Z,16.2
2018-03-01T04:50:14.623Z,16.2
2018-03-01T04:51:14.646Z,16.2
2018-03-01T04:52:14.657Z,16.19
2018-03-01T04:53:14.646Z,16.21
2018-03-01T04:54:14.667Z,16.2
2018-03-01T04:55:14.650Z,16.19
2018-03-01T04:56:14.641Z,16.19
2018-03-01T04:57:14.657Z,16.19
2018-03-01T04:58:14.689Z,16.19
2018-03-01T04:59:14.673Z,16.21
2018-03-01T05:00:14.642Z,16.2
2018-03-01T05:01:14.635Z,16.21
2018-03-01T05:02:14.639Z,16.22
2018-03-01T05:03:14.658Z,16.23
2018-03-01T05:04:14.629Z,16.25
2018-03-01T05:05:14.676Z,16.24
2018-03-01T05:06:14.645Z,16.25
2018-03-01T05:07:14.634Z,16.24
2018-03-01T05:08:14.624Z,16.26
2018-03-01T05:09:14.622Z,16.24
2018-03-01T05:10:14.651Z,16.27
2018-03-01T05:11:14.624Z,16.26
2018-03-01T05:12:14.623Z,16.28
2018-03-01T05:13:14.681Z,16.29
2018-03-01T05:14:14.627Z,16.29
2018-03-01T05:15:14.614Z,16.31
2018-03-01T05:16:14.690Z,16.32
2018-03-01T05:17:14.637Z,16.34
2018-03-01T05:18:14.651Z,16.34
2018-03-01T05:19:14.617Z,16.35
2018-03-01T05:20:14.637Z,16.36
2018-03-01T05:21:14.624Z,16.36
2018-03-01T05:22:14.679Z,16.38
2018-03-01T05:23:14.651Z,16.38
2018-03-01T05:24:14.628Z,16.4
2018-03-01T05:25:14.633Z,16.41
2018-03-01T05:26:14.646Z,16.42
2018-03-01T05:27:14.640Z,16.44
2018-03-01T05:28:14.650Z,16.46
2018-03-01T05:29:14.667Z,16.48
2018-03-01T05:30:14.668Z,16.5
2018-03-01T05:31:14.621Z,16.5
2018-03-01T05:32:14.624Z,16.52
2018-03-01T05:33:14.629Z,16.54
2018-03-01T05:34:14.653Z,16.56
2018-03-01T05:35:14.624Z,16.58
2018-03-01T05:36:14.640Z,16.6
2018-03-01T05:37:14.644Z,16.63
2018-03-01T05:38:14.624Z,16.63
2018-03-01T05:39:14.624Z,16.65
2018-03-01T05:40:14.645Z,16.69
2018-03-01T05:41:14.682Z,16.69
2018-03-01T05:42:14.606Z,16.72
2018-03-01T05:43:14.638Z,16.73
2018-03-01T05:44:14.638Z,16.74
2018-03-01T05:45:14.642Z,16.76
2018-03-01T05:46:14.622Z,16.78
2018-03-01T05:47:14.625Z,16.79
2018-03-01T05:48:14.614Z,16.8
2018-03-01T05:49:14.649Z,16.81
2018-03-01T05:50:14.705Z,16.83
2018-03-01T05:51:14.612Z,16.84
2018-03-01T05:52:14.622Z,16.85
2018-03-01T05:53:14.642Z,16.87
2018-03-01T05:54:14.630Z,16.88
2018-03-01T05:55:14.660Z,16.89
2018-03-01T05:56:14.640Z,16.91
2018-03-01T05:57:14.622Z,16.92
2018-03-01T05:58:14.618Z,16.92
2018-03-01T05:59:14.599Z,16.94
2018-03-01T06:00:14.663Z,16.94
2018-03-01T06:01:14.625Z,16.96
2018-03-01T06:02:14.639Z,16.97
2018-03-01T06:03:14.612Z,16.99
2018-03-01T06:04:14.622Z,16.98
2018-03-01T06:05:14.658Z,17.01
2018-03-01T06:06:14.615Z,17.02
2018-03-01T06:07:14.625Z,17.04
2018-03-01T06:08:14.628Z,17.04
2018-03-01T06:09:14.600Z,17.05
2018-03-01T06:10:14.689Z,17.06
2018-03-01T06:11:14.613Z,17.08
2018-03-01T06:12:14.626Z,17.1
2018-03-01T06:13:14.604Z,17.1
2018-03-01T06:14:14.624Z,17.12
2018-03-01T06:15:14.932Z,17.11
2018-03-01T06:16:14.618Z,17.13
2018-03-01T06:17:14.626Z,17.15
2018-03-01T06:18:14.605Z,17.16
2018-03-01T06:19:14.596Z,17.16
2018-03-01T06:20:14.636Z,17.17
2018-03-01T06:21:14.615Z,17.18
2018-03-01T06:22:14.625Z,17.19
2018-03-01T06:23:14.609Z,17.2
2018-03-01T06:24:14.718Z,17.21
2018-03-01T06:25:14.738Z,17.22
2018-03-01T06:26:14.619Z,17.23
2018-03-01T06:27:14.595Z,17.24
2018-03-01T06:28:14.628Z,17.25
2018-03-01T06:29:14.592Z,17.25
2018-03-01T06:30:14.634Z,17.26
2018-03-01T06:31:14.613Z,17.27
2018-03-01T06:32:14.618Z,17.27
2018-03-01T06:33:14.616Z,17.28
2018-03-01T06:34:14.612Z,17.29
2018-03-01T06:35:14.615Z,17.3
2018-03-01T06:36:14.627Z,17.31
2018-03-01T06:37:14.580Z,17.32
2018-03-01T06:38:14.611Z,17.32
2018-03-01T06:39:14.603Z,17.33
2018-03-01T06:40:14.619Z,17.34
2018-03-01T06:41:14.589Z,17.35
2018-03-01T06:42:14.634Z,17.35
2018-03-01T06:43:14.610Z,17.37
2018-03-01T06:44:14.644Z,17.36
2018-03-01T06:45:14.604Z,17.39
2018-03-01T06:46:14.605Z,17.38
2018-03-01T06:47:14.621Z,17.39
2018-03-01T06:48:14.588Z,17.4
2018-03-01T06:49:14.630Z,17.4
2018-03-01T06:50:14.611Z,17.4
2018-03-01T06:51:14.588Z,17.42
2018-03-01T06:52:14.606Z,17.41
2018-03-01T06:53:14.674Z,17.42
2018-03-01T06:54:14.890Z,17.44
2018-03-01T06:55:14.611Z,17.44
2018-03-01T06:56:14.605Z,17.46
2018-03-01T06:57:14.611Z,17.46
2018-03-01T06:58:14.594Z,17.45
2018-03-01T06:59:14.625Z,17.47
2018-03-01T07:00:14.617Z,17.47
2018-03-01T07:01:14.613Z,17.48
2018-03-01T07:02:14.625Z,17.47
2018-03-01T07:03:14.599Z,17.49
2018-03-01T07:04:14.623Z,17.49
2018-03-01T07:05:14.598Z,17.49
2018-03-01T07:06:14.603Z,17.5
2018-03-01T07:07:14.586Z,17.5
2018-03-01T07:08:14.603Z,17.49
2018-03-01T07:09:14.571Z,17.5
2018-03-01T07:10:14.607Z,17.5
2018-03-01T07:11:14.633Z,17.49
2018-03-01T07:12:14.587Z,17.5
2018-03-01T07:13:14.586Z,17.49
2018-03-01T07:14:14.585Z,17.49
2018-03-01T07:15:14.580Z,17.49
2018-03-01T07:16:14.597Z,17.51
2018-03-01T07:17:14.580Z,17.5
2018-03-01T07:18:14.594Z,17.5
2018-03-01T07:19:14.620Z,17.5
2018-03-01T07:20:14.632Z,17.51
2018-03-01T07:21:14.587Z,17.51
2018-03-01T07:22:14.577Z,17.51
2018-03-01T07:23:14.598Z,17.51
2018-03-01T07:24:14.586Z,17.5
2018-03-01T07:25:14.618Z,17.51
2018-03-01T07:26:14.587Z,17.51
2018-03-01T07:27:14.574Z,17.51
2018-03-01T07:28:14.596Z,17.52
2018-03-01T07:29:14.595Z,17.52
2018-03-01T07:30:14.583Z,17.52
2018-03-01T07:31:14.594Z,17.53
2018-03-01T07:32:14.616Z,17.52
2018-03-01T07:33:14.566Z,17.53
2018-03-01T07:34:14.584Z,17.54
2018-03-01T07:35:14.595Z,17.54
2018-03-01T07:36:14.616Z,17.55
2018-03-01T07:37:14.592Z,17.55
2018-03-01T07:38:14.564Z,17.55
2018-03-01T07:39:14.588Z,17.55
2018-03-01T07:40:14.579Z,17.56
2018-03-01T07:41:14.578Z,17.56
2018-03-01T07:42:14.590Z,17.56
2018-03-01T07:43:14.589Z,17.56
2018-03-01T07:44:14.572Z,17.57
2018-03-01T07:45:14.563Z,17.58
2018-03-01T07:46:14.604Z,17.58
2018-03-01T07:47:14.580Z,17.58
2018-03-01T07:48:14.567Z,17.59
2018-03-01T07:49:14.663Z,17.6
2018-03-01T07:50:14.590Z,17.6
2018-03-01T07:51:14.608Z,17.59
2018-03-01T07:52:14.589Z,17.59
2018-03-01T07:53:14.565Z,17.59
2018-03-01T07:54:14.572Z,17.6
2018-03-01T07:55:14.600Z,17.6
2018-03-01T07:56:14.592Z,17.61
2018-03-01T07:57:14.596Z,17.61
2018-03-01T07:58:14.587Z,17.61
2018-03-01T07:59:14.596Z,17.61
2018-03-01T08:00:14.564Z,17.62
2018-03-01T08:01:14.584Z,17.62
2018-03-01T08:02:14.579Z,17.63
2018-03-01T08:03:14.579Z,17.62
2018-03-01T08:04:14.586Z,17.64
2018-03-01T08:05:14.594Z,17.64
2018-03-01T08:06:14.560Z,17.65
2018-03-01T08:07:14.589Z,17.63
2018-03-01T08:08:14.578Z,17.63
2018-03-01T08:09:14.572Z,17.64
2018-03-01T08:10:14.576Z,17.64
2018-03-01T08:11:14.587Z,17.65
2018-03-01T08:12:14.574Z,17.65
2018-03-01T08:13:14.562Z,17.62
2018-03-01T08:14:14.571Z,17.63
2018-03-01T08:15:14.552Z,17.64
2018-03-01T08:16:14.610Z,17.63
2018-03-01T08:17:14.576Z,17.64
2018-03-01T08:18:14.563Z,17.64
2018-03-01T08:19:14.575Z,17.65
2018-03-01T08:20:14.561Z,17.65
2018-03-01T08:21:14.587Z,17.64
2018-03-01T08:22:14.549Z,17.66
2018-03-01T08:23:14.553Z,17.66
2018-03-01T08:24:14.587Z,17.68
2018-03-01T08:25:14.702Z,17.67
2018-03-01T08:26:14.672Z,17.68
2018-03-01T08:27:14.569Z,17.68
2018-03-01T08:28:14.576Z,17.68
2018-03-01T08:29:14.570Z,17.68
2018-03-01T08:30:14.611Z,17.69
2018-03-01T08:31:14.577Z,17.7
2018-03-01T08:32:14.595Z,17.7
2018-03-01T08:33:14.604Z,17.7
2018-03-01T08:34:14.605Z,17.71
2018-03-01T08:35:14.555Z,17.72
2018-03-01T08:36:14.572Z,17.73
2018-03-01T08:37:14.573Z,17.73
2018-03-01T08:38:14.565Z,17.75
2018-03-01T08:39:14.578Z,17.75
2018-03-01T08:40:14.561Z,17.74
2018-03-01T08:41:14.551Z,17.74
2018-03-01T08:42:14.555Z,17.76
2018-03-01T08:43:14.565Z,17.76
2018-03-01T08:44:14.590Z,17.76
2018-03-01T08:45:14.557Z,17.78
2018-03-01T08:46:14.574Z,17.78
2018-03-01T08:47:14.549Z,17.78
2018-03-01T08:48:14.560Z,17.79
2018-03-01T08:49:14.589Z,17.79
2018-03-01T08:50:14.570Z,17.81
2018-03-01T08:51:14.554Z,17.8
2018-03-01T08:52:14.566Z,17.8
2018-03-01T08:53:14.549Z,17.8
2018-03-01T08:54:14.567Z,17.82
2018-03-01T08:55:14.563Z,17.82
2018-03-01T08:56:14.577Z,17.83
2018-03-01T08:57:14.536Z,17.83
2018-03-01T08:58:14.561Z,17.83
2018-03-01T08:59:14.557Z,17.83
2018-03-01T09:00:14.555Z,17.84
2018-03-01T09:01:14.566Z,17.84
2018-03-01T09:02:14.561Z,17.85
2018-03-01T09:03:14.548Z,17.85
2018-03-01T09:04:14.591Z,17.86
2018-03-01T09:05:14.574Z,17.86
2018-03-01T09:06:14.575Z,17.86
2018-03-01T09:07:14.553Z,17.86
2018-03-01T09:08:14.550Z,17.87
2018-03-01T09:09:14.542Z,17.86
2018-03-01T09:10:14.559Z,17.87
2018-03-01T09:11:14.584Z,17.88
2018-03-01T09:12:14.572Z,17.87
2018-03-01T09:13:14.544Z,17.88
2018-03-01T09:14:14.543Z,17.88
2018-03-01T09:15:14.571Z,17.88
2018-03-01T09:16:14.546Z,17.88
2018-03-01T09:17:14.560Z,17.89
2018-03-01T09:18:14.551Z,17.89
2018-03-01T09:19:14.541Z,17.89
2018-03-01T09:20:14.598Z,17.9
2018-03-01T09:21:14.548Z,17.9
2018-03-01T09:22:14.545Z,17.89
2018-03-01T09:23:14.549Z,17.91
2018-03-01T09:24:14.544Z,17.91
2018-03-01T09:25:14.554Z,17.91
2018-03-01T09:26:14.548Z,17.91
2018-03-01T09:27:14.522Z,17.91
2018-03-01T09:28:14.557Z,17.91
2018-03-01T09:29:14.574Z,17.91
2018-03-01T09:30:14.520Z,17.92
2018-03-01T09:31:14.588Z,17.92
2018-03-01T09:32:14.551Z,17.93
2018-03-01T09:33:14.536Z,17.93
2018-03-01T09:34:14.548Z,17.92
2018-03-01T09:35:14.546Z,17.93
2018-03-01T09:36:14.556Z,17.93
2018-03-01T09:37:14.546Z,17.93
2018-03-01T09:38:14.547Z,17.94
2018-03-01T09:39:14.558Z,17.94
2018-03-01T09:40:14.548Z,17.94
2018-03-01T09:41:14.535Z,17.95
2018-03-01T09:42:14.530Z,17.94
2018-03-01T09:43:14.550Z,17.99
2018-03-01T09:44:14.549Z,18.03
2018-03-01T09:45:14.541Z,17.99
2018-03-01T09:46:14.561Z,18
2018-03-01T09:47:14.528Z,17.98
2018-03-01T09:48:14.537Z,17.97
2018-03-01T09:49:14.524Z,18
2018-03-01T09:50:14.529Z,17.99
2018-03-01T09:51:14.551Z,18
2018-03-01T09:52:14.522Z,17.99
2018-03-01T09:53:14.540Z,18
2018-03-01T09:54:14.569Z,18.01
2018-03-01T09:55:14.537Z,18.02
2018-03-01T09:56:14.596Z,18.03
2018-03-01T09:57:14.537Z,18.04
2018-03-01T09:58:14.553Z,18.04
2018-03-01T09:59:14.533Z,18.04
2018-03-01T10:00:14.577Z,18.04
2018-03-01T10:01:14.530Z,18.06
2018-03-01T10:02:14.860Z,18.06
2018-03-01T10:03:14.589Z,18.08
2018-03-01T10:04:14.521Z,18.07
2018-03-01T10:05:14.693Z,18.09
2018-03-01T10:06:14.529Z,18.09
2018-03-01T10:07:14.558Z,18.09
2018-03-01T10:08:14.520Z,18.1
2018-03-01T10:09:14.546Z,18.1
2018-03-01T10:10:14.540Z,18.11
2018-03-01T10:11:14.540Z,18.12
2018-03-01T10:12:14.551Z,18.12
2018-03-01T10:13:14.510Z,18.13
2018-03-01T10:14:14.533Z,18.14
2018-03-01T10:15:14.514Z,18.14
2018-03-01T10:16:14.516Z,18.15
2018-03-01T10:17:14.586Z,18.14
2018-03-01T10:18:14.549Z,18.17
2018-03-01T10:19:14.542Z,18.17
2018-03-01T10:20:14.532Z,18.16
2018-03-01T10:21:14.530Z,18.17
2018-03-01T10:22:14.542Z,18.18
2018-03-01T10:23:14.529Z,18.18
2018-03-01T10:24:14.539Z,18.18
2018-03-01T10:25:14.546Z,18.18
2018-03-01T10:26:14.622Z,18.2
2018-03-01T10:27:14.630Z,18.2
2018-03-01T10:28:14.519Z,18.21
2018-03-01T10:29:14.527Z,18.22
2018-03-01T10:30:14.544Z,18.21
2018-03-01T10:31:14.542Z,18.23
2018-03-01T10:32:14.516Z,18.26
2018-03-01T10:33:14.553Z,18.21
2018-03-01T10:34:14.526Z,18.21
2018-03-01T10:35:14.534Z,18.2
2018-03-01T10:36:14.537Z,18.18
2018-03-01T10:37:14.522Z,18.17
2018-03-01T10:38:14.565Z,18.16
2018-03-01T10:39:14.518Z,18.15
2018-03-01T10:40:14.507Z,18.16
2018-03-01T10:41:14.513Z,18.16
2018-03-01T10:42:14.535Z,18.16
2018-03-01T10:43:14.553Z,18.15
2018-03-01T10:44:14.506Z,18.14
2018-03-01T10:45:14.523Z,18.13
2018-03-01T10:46:14.517Z,18.14
2018-03-01T10:47:14.531Z,18.12
2018-03-01T10:48:14.559Z,18.14
2018-03-01T10:49:14.557Z,18.12
2018-03-01T10:50:14.520Z,18.12
2018-03-01T10:51:14.510Z,18.11
2018-03-01T10:52:14.558Z,18.11
2018-03-01T10:53:14.529Z,18.11
2018-03-01T10:54:14.795Z,18.11
2018-03-01T10:55:14.535Z,18.11
2018-03-01T10:56:14.530Z,18.11
2018-03-01T10:57:14.506Z,18.11
2018-03-01T10:58:14.537Z,18.11
2018-03-01T10:59:14.547Z,18.1
2018-03-01T11:00:14.522Z,18.1
2018-03-01T11:01:14.525Z,18.09
2018-03-01T11:02:14.518Z,18.08
2018-03-01T11:03:14.502Z,18.09
2018-03-01T11:04:14.546Z,18.09
2018-03-01T11:05:14.521Z,18.08
2018-03-01T11:06:14.534Z,18.08
2018-03-01T11:07:14.519Z,18.08
2018-03-01T11:08:14.527Z,18.08
2018-03-01T11:09:14.541Z,18.09
2018-03-01T11:10:14.521Z,18.09
2018-03-01T11:11:14.508Z,18.09
2018-03-01T11:12:14.501Z,18.08
2018-03-01T11:13:14.505Z,18.08
2018-03-01T11:14:14.516Z,18.09
2018-03-01T11:15:14.501Z,18.09
2018-03-01T11:16:14.533Z,18.09
2018-03-01T11:17:14.600Z,18.09
2018-03-01T11:18:14.514Z,18.08
2018-03-01T11:19:14.516Z,18.08
2018-03-01T11:20:14.498Z,18.08
2018-03-01T11:21:14.527Z,18.08
2018-03-01T11:22:14.502Z,18.09
2018-03-01T11:23:14.564Z,18.08
2018-03-01T11:24:14.531Z,18.1
2018-03-01T11:25:14.523Z,18.09
2018-03-01T11:26:14.504Z,18.08
2018-03-01T11:27:14.500Z,18.1
2018-03-01T11:28:14.529Z,18.09
2018-03-01T11:29:14.518Z,18.09
2018-03-01T11:30:14.497Z,18.1
2018-03-01T11:31:14.509Z,18.09
2018-03-01T11:32:14.498Z,18.09
2018-03-01T11:33:14.512Z,18.1
2018-03-01T11:34:14.503Z,18.09
2018-03-01T11:35:14.523Z,18.09
2018-03-01T11:36:14.498Z,18.1
2018-03-01T11:37:14.500Z,18.1
2018-03-01T11:38:14.513Z,18.1
2018-03-01T11:39:14.533Z,18.1
2018-03-01T11:40:14.540Z,18.1
2018-03-01T11:41:14.474Z,18.1
2018-03-01T11:42:14.490Z,18.1
2018-03-01T11:43:14.500Z,18.09
2018-03-01T11:44:14.529Z,18.09
2018-03-01T11:45:14.514Z,18.09
2018-03-01T11:46:14.501Z,18.1
2018-03-01T11:47:14.504Z,18.1
2018-03-01T11:48:14.500Z,18.1
2018-03-01T11:49:14.646Z,18.1
2018-03-01T11:50:14.493Z,18.1
2018-03-01T11:51:14.504Z,18.1
2018-03-01T11:52:14.506Z,18.11
2018-03-01T11:53:14.505Z,18.11
2018-03-01T11:54:14.491Z,18.1
2018-03-01T11:55:14.504Z,18.11
2018-03-01T11:56:14.479Z,18.1
2018-03-01T11:57:14.490Z,18.1
2018-03-01T11:58:14.485Z,18.1
2018-03-01T11:59:14.567Z,18.09
2018-03-01T12:00:14.509Z,18.09
2018-03-01T12:01:14.495Z,18.1
2018-03-01T12:02:14.493Z,18.1
2018-03-01T12:03:14.481Z,18.1
2018-03-01T12:04:14.519Z,18.09
2018-03-01T12:05:14.509Z,18.1
2018-03-01T12:06:14.491Z,18.1
2018-03-01T12:07:14.540Z,18.1
2018-03-01T12:08:14.475Z,18.11
2018-03-01T12:09:14.480Z,18.11
2018-03-01T12:10:14.482Z,18.09
2018-03-01T12:11:14.490Z,18.09
2018-03-01T12:12:14.501Z,18.1
2018-03-01T12:13:14.516Z,18.1
2018-03-01T12:14:14.500Z,18.09
2018-03-01T12:15:14.501Z,18.1
2018-03-01T12:16:14.470Z,18.1
2018-03-01T12:17:14.502Z,18.1
2018-03-01T12:18:14.497Z,18.1
2018-03-01T12:19:14.485Z,18.09
2018-03-01T12:20:14.491Z,18.11
2018-03-01T12:21:14.479Z,18.11
2018-03-01T12:22:14.512Z,18.1
2018-03-01T12:23:14.501Z,18.1
2018-03-01T12:24:14.492Z,18.1
2018-03-01T12:25:14.477Z,18.09
2018-03-01T12:26:14.505Z,18.1
2018-03-01T12:27:14.588Z,18.1
2018-03-01T12:28:14.608Z,18.1
2018-03-01T12:29:14.467Z,18.09
2018-03-01T12:30:14.485Z,18.1
2018-03-01T12:31:14.490Z,18.1
2018-03-01T12:32:14.493Z,18.09
2018-03-01T12:33:14.527Z,18.12
2018-03-01T12:34:14.504Z,18.11
2018-03-01T12:35:14.511Z,18.1
2018-03-01T12:36:14.491Z,18.09
2018-03-01T12:37:14.474Z,18.11
2018-03-01T12:38:14.497Z,18.11
2018-03-01T12:39:14.497Z,18.12
2018-03-01T12:40:14.455Z,18.1
2018-03-01T12:41:14.480Z,18.12
2018-03-01T12:42:14.491Z,18.11
2018-03-01T12:43:14.472Z,18.11
2018-03-01T12:44:14.496Z,18.11
2018-03-01T12:45:14.484Z,18.11
2018-03-01T12:46:14.487Z,18.11
2018-03-01T12:47:14.468Z,18.13
2018-03-01T12:48:14.474Z,18.11
2018-03-01T12:49:14.485Z,18.11
2018-03-01T12:50:14.503Z,18.12
2018-03-01T12:51:14.476Z,18.12
2018-03-01T12:52:14.480Z,18.12
2018-03-01T12:53:14.505Z,18.12
2018-03-01T12:54:14.512Z,18.11
2018-03-01T12:55:14.490Z,18.12
2018-03-01T12:56:14.502Z,18.13